createdAt,value
2017-07-25T00:01:57.580Z,22.10
2017-07-25T00:04:24.978Z,19.43
2017-07-25T00:06:52.379Z,21.63
2017-07-25T00:09:19.776Z,19.60
2017-07-25T00:11:47.175Z,19.50
2017-07-25T00:14:14.583Z,21.83
2017-07-25T00:16:41.979Z,24.67
2017-07-25T00:19:09.382Z,26.17
2017-07-25T00:21:36.782Z,29.10
2017-07-25T00:24:04.182Z,25.60
2017-07-25T00:26:31.578Z,33.33
2017-07-25T00:28:59.291Z,34.43
2017-07-25T00:31:26.690Z,35.10
2017-07-25T00:33:54.095Z,29.00
2017-07-25T00:36:21.702Z,29.40
2017-07-25T00:38:49.104Z,29.47
2017-07-25T00:41:16.494Z,30.73
2017-07-25T00:43:43.919Z,30.07
2017-07-25T00:46:11.306Z,35.90
2017-07-25T00:48:38.707Z,36.37
2017-07-25T00:51:06.116Z,36.33
2017-07-25T00:53:33.506Z,33.73
2017-07-25T00:56:00.902Z,33.07
2017-07-25T00:58:28.298Z,42.57
2017-07-25T01:00:55.702Z,33.50
2017-07-25T01:03:23.094Z,29.33
2017-07-25T01:05:50.499Z,34.70
2017-07-25T01:08:17.895Z,32.43
2017-07-25T01:10:45.298Z,31.30
2017-07-25T01:13:12.998Z,36.20
2017-07-25T01:15:40.414Z,32.03
2017-07-25T01:18:07.810Z,26.23
2017-07-25T01:20:35.226Z,25.30
2017-07-25T01:23:02.623Z,25.43
2017-07-25T01:25:30.027Z,21.53
2017-07-25T01:27:57.431Z,23.93
2017-07-25T01:30:24.827Z,21.90
2017-07-25T01:32:52.228Z,18.67
2017-07-25T01:35:19.643Z,22.80
2017-07-25T01:37:47.042Z,23.63
2017-07-25T01:40:14.438Z,19.73
2017-07-25T01:42:41.840Z,18.27
2017-07-25T01:45:09.239Z,27.33
2017-07-25T01:47:36.646Z,18.67
2017-07-25T01:50:04.037Z,22.60
2017-07-25T01:52:31.439Z,29.50
2017-07-25T01:54:58.834Z,18.00
2017-07-25T01:57:26.259Z,24.37
2017-07-25T01:59:53.659Z,22.83
2017-07-25T02:02:21.051Z,26.13
2017-07-25T02:04:48.450Z,34.43
2017-07-25T02:07:16.122Z,22.40
2017-07-25T02:09:43.783Z,21.53
2017-07-25T02:12:11.188Z,24.10
2017-07-25T02:14:38.586Z,21.40
2017-07-25T02:17:05.979Z,25.13
2017-07-25T02:19:33.379Z,28.20
2017-07-25T02:22:00.783Z,25.93
2017-07-25T02:24:28.187Z,19.80
2017-07-25T02:26:55.611Z,20.80
2017-07-25T02:29:23.002Z,18.40
2017-07-25T02:31:50.404Z,20.20
2017-07-25T02:34:18.043Z,16.57
2017-07-25T02:36:45.623Z,16.77
2017-07-25T02:39:13.011Z,17.90
2017-07-25T02:41:40.627Z,14.67
2017-07-25T02:44:08.278Z,15.10
2017-07-25T02:46:35.674Z,15.50
2017-07-25T02:49:03.086Z,15.07
2017-07-25T02:51:30.480Z,18.33
2017-07-25T02:53:57.878Z,13.73
2017-07-25T02:56:25.275Z,30.03
2017-07-25T02:58:52.683Z,13.90
2017-07-25T03:01:20.083Z,16.80
2017-07-25T03:03:47.482Z,20.63
2017-07-25T03:06:14.874Z,19.93
2017-07-25T03:08:42.281Z,18.70
2017-07-25T03:11:09.674Z,24.23
2017-07-25T03:13:37.086Z,29.00
2017-07-25T03:16:04.535Z,20.53
2017-07-25T03:18:32.167Z,19.30
2017-07-25T03:20:59.562Z,26.93
2017-07-25T03:23:36.533Z,25.03
2017-07-25T03:26:04.158Z,26.67
2017-07-25T03:28:31.550Z,28.53
2017-07-25T03:30:58.957Z,32.80
2017-07-25T03:33:26.353Z,28.80
2017-07-25T03:35:53.759Z,29.20
2017-07-25T03:38:21.155Z,27.20
2017-07-25T03:40:48.550Z,30.37
2017-07-25T03:43:15.976Z,33.70
2017-07-25T03:45:43.358Z,26.40
2017-07-25T03:48:10.777Z,33.20
2017-07-25T03:50:38.171Z,34.37
2017-07-25T03:53:05.574Z,31.40
2017-07-25T03:55:32.967Z,34.20
2017-07-25T03:58:00.371Z,28.07
2017-07-25T04:00:27.773Z,32.87
2017-07-25T04:02:55.168Z,32.90
2017-07-25T04:05:22.847Z,32.47
2017-07-25T04:07:50.250Z,32.40
2017-07-25T04:10:17.650Z,28.27
2017-07-25T04:12:45.047Z,34.23
2017-07-25T04:15:12.447Z,31.10
2017-07-25T04:17:39.851Z,31.90
2017-07-25T04:20:07.250Z,31.33
2017-07-25T04:22:34.646Z,35.00
2017-07-25T04:25:02.052Z,33.33
2017-07-25T04:27:29.447Z,34.07
2017-07-25T04:29:56.848Z,36.77
2017-07-25T04:32:24.250Z,32.30
2017-07-25T04:34:51.639Z,39.00
2017-07-25T04:37:19.038Z,34.30
2017-07-25T04:39:46.726Z,29.73
2017-07-25T04:42:14.122Z,29.00
2017-07-25T04:44:41.515Z,28.93
2017-07-25T04:47:08.931Z,29.43
2017-07-25T04:49:36.319Z,28.27
2017-07-25T04:52:03.722Z,31.10
2017-07-25T04:54:31.114Z,26.13
2017-07-25T04:56:58.533Z,35.50
2017-07-25T04:59:25.928Z,42.97
2017-07-25T05:01:53.439Z,36.37
2017-07-25T05:04:20.838Z,37.03
2017-07-25T05:06:48.250Z,37.27
2017-07-25T05:09:15.633Z,37.30
2017-07-25T05:11:43.039Z,24.77
2017-07-25T05:14:10.437Z,29.47
2017-07-25T05:16:37.843Z,29.63
2017-07-25T05:19:05.240Z,24.17
2017-07-25T05:21:32.689Z,27.87
2017-07-25T05:24:00.057Z,27.93
2017-07-25T05:26:27.459Z,31.13
2017-07-25T05:28:54.847Z,24.33
2017-07-25T05:31:22.330Z,22.20
2017-07-25T05:33:49.763Z,23.07
2017-07-25T05:36:17.182Z,25.60
2017-07-25T05:38:44.867Z,22.40
2017-07-25T05:41:12.262Z,20.70
2017-07-25T05:43:39.682Z,18.30
2017-07-25T05:46:07.072Z,23.50
2017-07-25T05:48:34.471Z,28.43
2017-07-25T05:51:01.876Z,20.80
2017-07-25T05:53:29.278Z,17.80
2017-07-25T05:55:56.666Z,18.60
2017-07-25T05:58:24.060Z,16.30
2017-07-25T06:00:51.522Z,18.50
2017-07-25T06:03:19.222Z,17.90
2017-07-25T06:05:46.886Z,18.87
2017-07-25T06:08:14.468Z,19.37
2017-07-25T06:10:41.886Z,18.53
2017-07-25T06:13:09.363Z,16.30
2017-07-25T06:15:36.742Z,17.60
2017-07-25T06:18:04.157Z,17.83
2017-07-25T06:20:31.542Z,17.57
2017-07-25T06:22:58.945Z,20.63
2017-07-25T06:25:26.339Z,19.90
2017-07-25T06:27:53.733Z,20.33
2017-07-25T06:30:21.354Z,17.50
2017-07-25T06:32:48.750Z,19.20
2017-07-25T06:35:16.147Z,18.50
2017-07-25T06:37:43.538Z,17.13
2017-07-25T06:40:10.939Z,17.33
2017-07-25T06:42:38.633Z,18.47
2017-07-25T06:45:06.023Z,15.13
2017-07-25T06:47:33.419Z,14.87
2017-07-25T06:50:00.839Z,18.30
2017-07-25T06:52:28.223Z,15.20
2017-07-25T06:54:55.621Z,16.43
2017-07-25T06:57:23.025Z,15.93
2017-07-25T06:59:50.410Z,14.30
2017-07-25T07:02:17.795Z,15.93
2017-07-25T07:04:45.194Z,15.13
2017-07-25T07:07:12.594Z,14.77
2017-07-25T07:09:39.985Z,16.13
2017-07-25T07:12:07.376Z,14.60
2017-07-25T07:14:34.762Z,14.77
2017-07-25T07:17:02.168Z,18.90
2017-07-25T07:19:29.556Z,14.87
2017-07-25T07:21:56.950Z,18.97
2017-07-25T07:24:24.349Z,16.57
2017-07-25T07:26:51.776Z,15.50
2017-07-25T07:29:19.183Z,15.50
2017-07-25T07:31:46.576Z,17.13
2017-07-25T07:34:13.986Z,14.67
2017-07-25T07:36:41.375Z,15.23
2017-07-25T07:39:08.763Z,16.70
2017-07-25T07:41:36.178Z,16.60
2017-07-25T07:44:03.590Z,16.33
2017-07-25T07:46:30.973Z,24.53
2017-07-25T07:48:58.384Z,21.07
2017-07-25T07:51:25.775Z,19.40
2017-07-25T07:53:53.178Z,19.70
2017-07-25T07:56:20.575Z,19.77
2017-07-25T07:58:47.978Z,21.70
2017-07-25T08:01:15.611Z,16.30
2017-07-25T08:03:43.014Z,21.10
2017-07-25T08:06:10.399Z,20.90
2017-07-25T08:08:37.795Z,15.73
2017-07-25T08:11:05.198Z,18.77
2017-07-25T08:13:32.578Z,17.40
2017-07-25T08:15:59.979Z,17.73
2017-07-25T08:18:27.384Z,23.33
2017-07-25T08:20:54.779Z,15.60
2017-07-25T08:23:22.174Z,19.43
2017-07-25T08:25:49.566Z,15.20
2017-07-25T08:28:16.962Z,18.13
2017-07-25T08:30:44.380Z,14.80
2017-07-25T08:33:11.765Z,15.27
2017-07-25T08:35:39.158Z,14.17
2017-07-25T08:38:06.541Z,13.93
2017-07-25T08:40:33.933Z,14.00
2017-07-25T08:43:01.328Z,13.47
2017-07-25T08:45:28.723Z,12.87
2017-07-25T08:47:56.110Z,12.60
2017-07-25T08:50:23.511Z,13.70
2017-07-25T08:52:50.910Z,12.77
2017-07-25T08:55:18.315Z,12.30
2017-07-25T08:57:45.716Z,12.10
2017-07-25T09:00:13.122Z,10.30
2017-07-25T09:02:40.507Z,8.57
2017-07-25T09:05:07.931Z,11.00
2017-07-25T09:07:35.318Z,6.90
2017-07-25T09:10:02.710Z,5.67
2017-07-25T09:12:30.098Z,5.70
2017-07-25T09:14:57.496Z,8.63
2017-07-25T09:17:24.875Z,9.73
2017-07-25T09:19:52.286Z,11.73
2017-07-25T09:22:19.688Z,11.27
2017-07-25T09:24:47.079Z,12.73
2017-07-25T09:27:14.471Z,15.63
2017-07-25T09:29:41.859Z,12.63
2017-07-25T09:32:09.253Z,11.23
2017-07-25T09:34:36.630Z,14.00
2017-07-25T09:37:04.035Z,13.07
2017-07-25T09:39:31.425Z,15.30
2017-07-25T09:41:58.831Z,11.00
2017-07-25T09:44:26.218Z,13.53
2017-07-25T09:46:53.622Z,13.73
2017-07-25T09:49:21.008Z,14.40
2017-07-25T09:51:48.401Z,14.80
2017-07-25T09:54:15.805Z,13.57
2017-07-25T09:56:43.214Z,13.63
2017-07-25T09:59:10.603Z,13.87
2017-07-25T10:01:38.002Z,12.20
2017-07-25T10:04:05.393Z,15.00
2017-07-25T10:06:32.791Z,15.53
2017-07-25T10:09:00.192Z,16.27
2017-07-25T10:11:27.590Z,15.00
2017-07-25T10:13:55.106Z,13.33
2017-07-25T10:16:22.498Z,14.20
2017-07-25T10:18:49.890Z,14.00
2017-07-25T10:21:17.570Z,16.47
2017-07-25T10:23:44.962Z,15.53
2017-07-25T10:26:12.363Z,16.43
2017-07-25T10:28:39.797Z,16.17
2017-07-25T10:31:07.195Z,13.73
2017-07-25T10:33:34.593Z,17.23
2017-07-25T10:36:02.011Z,13.90
2017-07-25T10:38:29.409Z,15.77
2017-07-25T10:40:56.811Z,13.50
2017-07-25T10:43:24.202Z,18.60
2017-07-25T10:45:51.611Z,15.20
2017-07-25T10:48:19.007Z,16.60
2017-07-25T10:50:46.390Z,12.97
2017-07-25T10:53:13.794Z,14.80
2017-07-25T10:55:41.219Z,14.07
2017-07-25T10:58:08.623Z,15.77
2017-07-25T11:00:36.014Z,14.27
2017-07-25T11:03:03.415Z,13.50
2017-07-25T11:05:30.810Z,12.20
2017-07-25T11:07:58.531Z,15.13
2017-07-25T11:10:25.923Z,13.27
2017-07-25T11:12:53.319Z,13.20
2017-07-25T11:15:20.710Z,12.73
2017-07-25T11:17:48.109Z,15.00
2017-07-25T11:20:15.508Z,12.37
2017-07-25T11:22:42.932Z,12.87
2017-07-25T11:25:10.319Z,11.80
2017-07-25T11:27:37.715Z,10.90
2017-07-25T11:30:05.105Z,16.80
2017-07-25T11:32:32.496Z,12.27
2017-07-25T11:34:59.879Z,13.07
2017-07-25T11:37:27.282Z,12.90
2017-07-25T11:39:54.683Z,12.00
2017-07-25T11:42:22.074Z,16.87
2017-07-25T11:44:49.462Z,15.03
2017-07-25T11:47:16.858Z,17.20
2017-07-25T11:49:44.242Z,14.03
2017-07-25T11:52:11.662Z,15.23
2017-07-25T11:54:39.062Z,14.87
2017-07-25T11:57:06.458Z,15.13
2017-07-25T11:59:34.654Z,14.77
2017-07-25T12:02:02.045Z,18.50
2017-07-25T12:04:29.443Z,19.20
2017-07-25T12:06:56.898Z,20.53
2017-07-25T12:09:24.282Z,17.40
2017-07-25T12:11:51.679Z,20.40
2017-07-25T12:14:19.074Z,18.40
2017-07-25T12:16:46.887Z,18.47
2017-07-25T12:19:14.288Z,15.20
2017-07-25T12:21:46.463Z,15.23
2017-07-25T12:24:13.856Z,15.17
2017-07-25T12:26:41.251Z,14.60
2017-07-25T12:29:08.684Z,15.93
2017-07-25T12:31:36.035Z,14.93
2017-07-25T12:34:03.435Z,22.37
2017-07-25T12:36:30.858Z,14.23
2017-07-25T12:38:58.255Z,14.83
2017-07-25T12:41:25.627Z,8.40
2017-07-25T12:43:53.020Z,7.17
2017-07-25T12:46:20.400Z,4.53
2017-07-25T12:48:47.790Z,11.00
2017-07-25T12:51:15.183Z,7.40
2017-07-25T12:53:42.571Z,6.17
2017-07-25T12:56:09.954Z,5.53
2017-07-25T12:58:37.663Z,5.27
2017-07-25T13:01:17.207Z,5.00
2017-07-25T13:03:44.604Z,5.87
2017-07-25T13:06:12.231Z,6.17
2017-07-25T13:08:39.610Z,5.60
2017-07-25T13:11:06.997Z,5.10
2017-07-25T13:13:34.378Z,4.97
2017-07-25T13:16:01.780Z,5.97
2017-07-25T13:18:29.154Z,3.93
2017-07-25T13:20:56.551Z,2.83
2017-07-25T13:23:23.943Z,2.83
2017-07-25T13:25:51.349Z,2.53
2017-07-25T13:28:18.720Z,2.10
2017-07-25T13:30:46.103Z,2.37
2017-07-25T13:33:13.485Z,2.03
2017-07-25T13:35:40.908Z,2.13
2017-07-25T13:38:08.286Z,2.33
2017-07-25T13:40:35.702Z,2.87
2017-07-25T13:43:03.087Z,2.10
2017-07-25T13:45:30.479Z,5.90
2017-07-25T13:47:57.865Z,2.50
2017-07-25T13:50:25.251Z,3.20
2017-07-25T13:52:52.640Z,4.13
2017-07-25T13:55:20.028Z,2.60
2017-07-25T13:57:47.411Z,2.40
2017-07-25T14:00:14.802Z,3.20
2017-07-25T14:02:42.192Z,3.40
2017-07-25T14:05:09.582Z,4.00
2017-07-25T14:07:36.964Z,3.00
2017-07-25T14:10:04.355Z,2.20
2017-07-25T14:12:31.739Z,2.77
2017-07-25T14:14:59.131Z,3.13
2017-07-25T14:17:26.514Z,3.37
2017-07-25T14:19:53.902Z,6.50
2017-07-25T14:22:21.292Z,1.90
2017-07-25T14:24:48.702Z,2.07
2017-07-25T14:27:16.081Z,2.07
2017-07-25T14:29:43.466Z,1.87
2017-07-25T14:32:10.855Z,2.60
2017-07-25T14:34:38.239Z,1.83
2017-07-25T14:37:05.630Z,2.00
2017-07-25T14:39:33.018Z,1.17
2017-07-25T14:42:00.402Z,1.53
2017-07-25T14:44:27.787Z,1.63
2017-07-25T14:46:55.183Z,2.20
2017-07-25T14:49:25.755Z,1.80
2017-07-25T14:51:53.142Z,1.90
2017-07-25T14:54:20.527Z,1.90
2017-07-25T14:56:47.935Z,2.20
2017-07-25T14:59:15.322Z,3.67
2017-07-25T15:01:42.707Z,2.63
2017-07-25T15:04:10.087Z,2.20
2017-07-25T15:06:37.482Z,1.80
2017-07-25T15:09:04.870Z,1.80
2017-07-25T15:11:32.261Z,1.90
2017-07-25T15:13:59.648Z,1.97
2017-07-25T15:16:27.030Z,4.57
2017-07-25T15:18:54.411Z,2.20
2017-07-25T15:21:21.799Z,2.27
2017-07-25T15:23:49.183Z,2.93
2017-07-25T15:26:16.578Z,2.03
2017-07-25T15:28:43.959Z,5.83
2017-07-25T15:31:11.346Z,4.73
2017-07-25T15:33:38.738Z,5.33
2017-07-25T15:36:06.132Z,3.67
2017-07-25T15:38:33.541Z,2.87
2017-07-25T15:41:00.927Z,3.00
2017-07-25T15:43:28.295Z,4.00
2017-07-25T15:45:55.671Z,3.50
2017-07-25T15:48:23.075Z,3.80
2017-07-25T15:50:50.463Z,4.30
2017-07-25T15:53:17.870Z,3.27
2017-07-25T15:55:45.238Z,3.47
2017-07-25T15:58:12.635Z,11.43
2017-07-25T16:00:40.023Z,6.43
2017-07-25T16:03:07.411Z,4.57
2017-07-25T16:05:34.812Z,3.57
2017-07-25T16:08:02.203Z,7.53
2017-07-25T16:10:29.582Z,5.13
2017-07-25T16:12:56.965Z,3.43
2017-07-25T16:15:24.353Z,4.60
2017-07-25T16:17:51.801Z,4.17
2017-07-25T16:20:19.188Z,5.03
2017-07-25T16:22:46.587Z,7.43
2017-07-25T16:25:13.968Z,6.03
2017-07-25T16:27:41.358Z,4.70
2017-07-25T16:30:08.978Z,5.20
2017-07-25T16:32:36.371Z,7.47
2017-07-25T16:35:03.751Z,4.57
2017-07-25T16:37:31.136Z,6.10
2017-07-25T16:39:58.526Z,6.00
2017-07-25T16:42:25.914Z,6.30
2017-07-25T16:44:53.298Z,6.67
2017-07-25T16:47:20.691Z,5.43
2017-07-25T16:49:48.078Z,8.33
2017-07-25T16:52:15.466Z,5.77
2017-07-25T16:54:42.852Z,5.20
2017-07-25T16:57:10.251Z,4.83
2017-07-25T16:59:37.638Z,8.03
2017-07-25T17:02:05.030Z,6.13
2017-07-25T17:04:32.415Z,4.17
2017-07-25T17:06:59.804Z,9.80
2017-07-25T17:09:27.220Z,6.27
2017-07-25T17:11:54.598Z,3.63
2017-07-25T17:14:21.985Z,5.73
2017-07-25T17:16:49.377Z,6.23
2017-07-25T17:19:16.838Z,15.20
2017-07-25T17:21:44.239Z,3.77
2017-07-25T17:24:11.624Z,9.67
2017-07-25T17:26:39.001Z,4.47
2017-07-25T17:29:06.614Z,6.37
2017-07-25T17:31:33.995Z,4.80
2017-07-25T17:34:01.382Z,7.57
2017-07-25T17:36:28.772Z,4.67
2017-07-25T17:38:56.164Z,7.20
2017-07-25T17:41:23.547Z,11.27
2017-07-25T17:43:50.944Z,8.80
2017-07-25T17:46:18.323Z,6.50
2017-07-25T17:48:45.719Z,8.50
2017-07-25T17:51:13.106Z,22.83
2017-07-25T17:53:40.489Z,5.13
2017-07-25T17:56:07.867Z,3.47
2017-07-25T17:58:35.267Z,11.93
2017-07-25T18:01:02.651Z,3.40
2017-07-25T18:03:30.049Z,6.57
2017-07-25T18:05:57.430Z,6.63
2017-07-25T18:08:24.825Z,5.33
2017-07-25T18:10:52.234Z,6.30
2017-07-25T18:13:19.627Z,12.00
2017-07-25T18:15:47.012Z,11.10
2017-07-25T18:18:14.402Z,11.47
2017-07-25T18:20:41.812Z,3.97
2017-07-25T18:23:09.179Z,7.37
2017-07-25T18:25:36.570Z,5.50
2017-07-25T18:28:03.956Z,4.83
2017-07-25T18:30:31.347Z,4.40
2017-07-25T18:32:58.786Z,10.10
2017-07-25T18:35:26.180Z,8.00
2017-07-25T18:37:53.635Z,5.20
2017-07-25T18:40:21.018Z,4.53
2017-07-25T18:42:48.407Z,11.97
2017-07-25T18:45:15.809Z,4.87
2017-07-25T18:47:43.189Z,3.53
2017-07-25T18:50:10.587Z,5.03
2017-07-25T18:52:37.975Z,4.30
2017-07-25T18:55:05.359Z,4.53
2017-07-25T18:57:32.738Z,4.87
2017-07-25T19:00:00.126Z,7.30
2017-07-25T19:02:27.510Z,10.20
2017-07-25T19:04:54.898Z,7.13
2017-07-25T19:07:22.569Z,4.80
2017-07-25T19:09:49.950Z,8.53
2017-07-25T19:12:17.335Z,9.43
2017-07-25T19:14:44.727Z,4.97
2017-07-25T19:17:12.114Z,4.10
2017-07-25T19:19:39.508Z,4.00
2017-07-25T19:22:06.980Z,4.17
2017-07-25T19:24:34.354Z,4.37
2017-07-25T19:27:01.737Z,4.50
2017-07-25T19:29:29.148Z,4.80
2017-07-25T19:31:56.539Z,4.90
2017-07-25T19:34:24.148Z,5.73
2017-07-25T19:36:51.539Z,5.23
2017-07-25T19:39:18.920Z,4.43
2017-07-25T19:41:46.306Z,6.67
2017-07-25T19:44:13.756Z,5.33
2017-07-25T19:46:41.138Z,5.90
2017-07-25T19:49:08.520Z,8.37
2017-07-25T19:51:35.907Z,6.80
2017-07-25T19:54:03.294Z,5.83
2017-07-25T19:56:30.666Z,8.40
2017-07-25T19:58:58.055Z,5.50
2017-07-25T20:01:25.451Z,6.50
2017-07-25T20:03:52.830Z,6.47
2017-07-25T20:06:20.219Z,10.90
2017-07-25T20:08:47.602Z,8.60
2017-07-25T20:11:15.214Z,5.53
2017-07-25T20:13:42.594Z,4.13
2017-07-25T20:16:09.993Z,3.90
2017-07-25T20:18:37.367Z,6.37
2017-07-25T20:21:04.766Z,5.40
2017-07-25T20:23:32.150Z,4.23
2017-07-25T20:25:59.548Z,4.67
2017-07-25T20:28:26.922Z,5.37
2017-07-25T20:30:54.313Z,4.20
2017-07-25T20:33:21.690Z,4.13
2017-07-25T20:35:49.087Z,6.53
2017-07-25T20:38:16.471Z,5.20
2017-07-25T20:40:43.862Z,6.10
2017-07-25T20:43:11.240Z,8.57
2017-07-25T20:45:38.834Z,8.70
2017-07-25T20:48:06.223Z,4.93
2017-07-25T20:50:33.603Z,4.27
2017-07-25T20:53:01.002Z,3.93
2017-07-25T20:55:28.386Z,6.10
2017-07-25T20:57:55.784Z,2.93
2017-07-25T21:00:23.170Z,3.17
2017-07-25T21:02:50.555Z,2.93
2017-07-25T21:05:19.274Z,3.67
2017-07-25T21:07:46.666Z,3.73
2017-07-25T21:10:14.262Z,3.53
2017-07-25T21:12:41.654Z,2.97
2017-07-25T21:15:09.042Z,3.80
2017-07-25T21:17:36.436Z,3.23
2017-07-25T21:20:03.820Z,3.33
2017-07-25T21:22:31.206Z,3.90
2017-07-25T21:24:58.599Z,4.00
2017-07-25T21:27:25.989Z,3.80
2017-07-25T21:29:53.374Z,6.73
2017-07-25T21:32:20.767Z,3.30
2017-07-25T21:34:48.161Z,3.60
2017-07-25T21:37:15.546Z,3.97
2017-07-25T21:39:42.936Z,3.97
2017-07-25T21:42:10.320Z,5.60
2017-07-25T21:44:37.711Z,3.43
2017-07-25T21:47:05.099Z,4.60
2017-07-25T21:49:32.497Z,4.20
2017-07-25T21:51:59.888Z,4.10
2017-07-25T21:54:27.272Z,7.97
2017-07-25T21:56:54.657Z,4.23
2017-07-25T21:59:23.292Z,4.20
2017-07-25T22:02:02.568Z,6.17
2017-07-25T22:04:41.642Z,11.13
2017-07-25T22:07:09.034Z,5.57
2017-07-25T22:09:36.419Z,5.30
2017-07-25T22:12:03.808Z,6.80
2017-07-25T22:14:31.411Z,5.47
2017-07-25T22:16:58.794Z,4.50
2017-07-25T22:19:26.408Z,18.93
2017-07-25T22:21:53.791Z,5.17
2017-07-25T22:24:21.203Z,3.80
2017-07-25T22:26:48.585Z,5.40
2017-07-25T22:29:15.975Z,7.70
2017-07-25T22:31:43.363Z,4.00
2017-07-25T22:34:10.755Z,4.50
2017-07-25T22:36:38.139Z,6.93
2017-07-25T22:39:05.536Z,7.47
2017-07-25T22:41:32.915Z,4.70
2017-07-25T22:44:00.310Z,3.53
2017-07-25T22:46:27.695Z,3.70
2017-07-25T22:48:55.083Z,8.80
2017-07-25T22:51:22.869Z,8.53
2017-07-25T22:53:50.267Z,4.60
2017-07-25T22:56:17.655Z,4.10
2017-07-25T22:58:45.035Z,4.67
2017-07-25T23:01:12.430Z,8.00
2017-07-25T23:03:39.815Z,4.97
2017-07-25T23:06:07.221Z,4.33
2017-07-25T23:08:34.591Z,4.73
2017-07-25T23:11:01.984Z,4.70
2017-07-25T23:13:29.591Z,4.77
2017-07-25T23:15:56.974Z,5.00
2017-07-25T23:18:24.351Z,4.90
2017-07-25T23:20:51.739Z,4.20
2017-07-25T23:23:19.131Z,4.60
2017-07-25T23:25:46.527Z,8.40
2017-07-25T23:28:13.915Z,6.50
2017-07-25T23:30:41.311Z,5.63
2017-07-25T23:33:08.696Z,8.27
2017-07-25T23:35:36.086Z,9.80
2017-07-25T23:38:03.511Z,13.07
2017-07-25T23:40:30.899Z,9.50
2017-07-25T23:42:58.278Z,5.97
2017-07-25T23:45:25.744Z,6.10
2017-07-25T23:47:53.128Z,11.43
2017-07-25T23:50:20.529Z,7.80
2017-07-25T23:52:47.911Z,5.80
2017-07-25T23:55:15.304Z,6.97
2017-07-25T23:57:42.697Z,5.33
